createdAt,value
2018-07-25T00:00:36.885Z,0.00
2018-07-25T00:01:36.232Z,0.00
2018-07-25T00:02:36.335Z,0.00
2018-07-25T00:03:36.439Z,0.00
2018-07-25T00:04:36.537Z,0.00
2018-07-25T00:05:36.636Z,0.00
2018-07-25T00:06:36.740Z,0.00
2018-07-25T00:07:36.842Z,0.00
2018-07-25T00:08:36.943Z,0.00
2018-07-25T00:09:37.077Z,0.00
2018-07-25T00:10:37.166Z,0.00
2018-07-25T00:11:37.266Z,0.00
2018-07-25T00:12:37.366Z,0.00
2018-07-25T00:13:37.468Z,0.00
2018-07-25T00:14:37.571Z,0.00
2018-07-25T00:15:37.671Z,0.00
2018-07-25T00:16:37.768Z,0.00
2018-07-25T00:17:37.870Z,0.00
2018-07-25T00:18:37.968Z,0.00
2018-07-25T00:19:38.068Z,0.00
2018-07-25T00:20:38.166Z,0.00
2018-07-25T00:21:38.268Z,0.00
2018-07-25T00:22:38.371Z,0.00
2018-07-25T00:23:38.473Z,0.00
2018-07-25T00:24:38.571Z,0.00
2018-07-25T00:25:38.673Z,0.00
2018-07-25T00:26:38.779Z,0.00
2018-07-25T00:27:38.881Z,0.00
2018-07-25T00:28:38.984Z,0.00
2018-07-25T00:29:39.083Z,0.00
2018-07-25T00:30:39.183Z,0.00
2018-07-25T00:31:39.274Z,0.00
2018-07-25T00:32:39.385Z,0.00
2018-07-25T00:33:39.486Z,0.00
2018-07-25T00:34:39.589Z,0.00
2018-07-25T00:35:39.692Z,0.00
2018-07-25T00:36:39.789Z,0.00
2018-07-25T00:37:39.891Z,0.00
2018-07-25T00:38:39.996Z,0.00
2018-07-25T00:39:40.094Z,0.00
2018-07-25T00:40:40.194Z,0.00
2018-07-25T00:41:40.295Z,0.00
2018-07-25T00:42:40.396Z,0.00
2018-07-25T00:43:40.497Z,0.00
2018-07-25T00:44:40.597Z,0.00
2018-07-25T00:45:40.698Z,0.00
2018-07-25T00:46:40.802Z,0.00
2018-07-25T00:47:40.903Z,0.00
2018-07-25T00:48:41.001Z,0.00
2018-07-25T00:49:41.102Z,0.00
2018-07-25T00:50:41.210Z,0.00
2018-07-25T00:51:41.308Z,0.00
2018-07-25T00:52:41.411Z,0.00
2018-07-25T00:53:41.511Z,0.00
2018-07-25T00:54:41.614Z,0.00
2018-07-25T00:55:41.717Z,0.00
2018-07-25T00:56:41.817Z,0.00
2018-07-25T00:57:41.923Z,0.00
2018-07-25T00:58:42.023Z,0.00
2018-07-25T00:59:42.124Z,0.00
2018-07-25T01:00:42.224Z,0.00
2018-07-25T01:01:42.321Z,0.00
2018-07-25T01:02:42.419Z,0.00
2018-07-25T01:03:42.518Z,0.00
2018-07-25T01:04:42.624Z,0.00
2018-07-25T01:05:42.731Z,0.00
2018-07-25T01:06:42.825Z,0.00
2018-07-25T01:07:42.917Z,0.00
2018-07-25T01:08:43.017Z,0.00
2018-07-25T01:09:43.115Z,0.00
2018-07-25T01:10:43.250Z,0.00
2018-07-25T01:11:43.352Z,0.00
2018-07-25T01:12:43.457Z,0.00
2018-07-25T01:13:43.556Z,0.00
2018-07-25T01:14:43.660Z,0.00
2018-07-25T01:15:43.758Z,0.00
2018-07-25T01:16:43.875Z,0.00
2018-07-25T01:17:44.005Z,0.00
2018-07-25T01:18:44.066Z,0.00
2018-07-25T01:19:44.152Z,0.00
2018-07-25T01:20:44.310Z,0.00
2018-07-25T01:21:44.303Z,0.00
2018-07-25T01:22:44.406Z,0.00
2018-07-25T01:23:44.517Z,0.00
2018-07-25T01:24:44.620Z,0.00
2018-07-25T01:25:44.711Z,0.00
2018-07-25T01:26:44.832Z,0.00
2018-07-25T01:27:44.933Z,0.00
2018-07-25T01:28:45.032Z,0.00
2018-07-25T01:29:45.147Z,0.00
2018-07-25T01:30:45.250Z,0.00
2018-07-25T01:31:45.347Z,0.00
2018-07-25T01:32:45.482Z,0.00
2018-07-25T01:33:45.587Z,0.00
2018-07-25T01:34:45.690Z,0.00
2018-07-25T01:35:45.785Z,0.00
2018-07-25T01:36:45.897Z,0.00
2018-07-25T01:37:45.994Z,0.00
2018-07-25T01:38:46.099Z,0.00
2018-07-25T01:39:46.188Z,0.00
2018-07-25T01:40:46.293Z,0.00
2018-07-25T01:41:46.393Z,0.00
2018-07-25T01:42:46.495Z,4.00
2018-07-25T01:43:46.591Z,0.00
2018-07-25T01:44:46.687Z,0.00
2018-07-25T01:45:46.785Z,0.00
2018-07-25T01:46:46.884Z,0.00
2018-07-25T01:47:46.995Z,0.00
2018-07-25T01:48:47.095Z,0.00
2018-07-25T01:49:47.190Z,0.00
2018-07-25T01:50:47.295Z,0.00
2018-07-25T01:51:47.399Z,0.00
2018-07-25T01:52:47.501Z,0.00
2018-07-25T01:53:47.616Z,0.00
2018-07-25T01:54:47.724Z,0.00
2018-07-25T01:55:47.817Z,0.00
2018-07-25T01:56:47.924Z,0.00
2018-07-25T01:57:48.029Z,0.00
2018-07-25T01:58:48.118Z,0.00
2018-07-25T01:59:48.216Z,0.00
2018-07-25T02:00:48.329Z,0.00
2018-07-25T02:01:48.424Z,0.00
2018-07-25T02:02:48.519Z,0.00
2018-07-25T02:03:48.624Z,0.00
2018-07-25T02:04:48.727Z,0.00
2018-07-25T02:05:48.827Z,0.00
2018-07-25T02:06:48.944Z,0.00
2018-07-25T02:07:49.048Z,0.00
2018-07-25T02:08:49.148Z,0.00
2018-07-25T02:09:49.252Z,0.00
2018-07-25T02:10:49.353Z,0.00
2018-07-25T02:11:49.447Z,0.00
2018-07-25T02:12:49.538Z,0.00
2018-07-25T02:13:49.638Z,0.00
2018-07-25T02:14:49.772Z,0.00
2018-07-25T02:15:49.868Z,0.00
2018-07-25T02:16:49.967Z,0.00
2018-07-25T02:17:50.068Z,0.00
2018-07-25T02:18:50.173Z,0.00
2018-07-25T02:19:50.295Z,0.00
2018-07-25T02:20:50.387Z,0.00
2018-07-25T02:21:50.515Z,0.00
2018-07-25T02:22:50.616Z,0.00
2018-07-25T02:23:50.698Z,0.00
2018-07-25T02:24:50.803Z,0.00
2018-07-25T02:25:50.901Z,0.00
2018-07-25T02:26:51.002Z,0.00
2018-07-25T02:27:51.103Z,0.00
2018-07-25T02:28:51.193Z,0.00
2018-07-25T02:29:51.293Z,0.00
2018-07-25T02:30:51.390Z,0.00
2018-07-25T02:31:51.496Z,0.00
2018-07-25T02:32:51.596Z,0.00
2018-07-25T02:33:51.692Z,0.00
2018-07-25T02:34:51.788Z,0.00
2018-07-25T02:35:51.958Z,0.00
2018-07-25T02:36:51.931Z,0.00
2018-07-25T02:37:52.034Z,0.00
2018-07-25T02:38:52.131Z,0.00
2018-07-25T02:39:52.228Z,0.00
2018-07-25T02:40:52.338Z,0.00
2018-07-25T02:41:52.444Z,0.00
2018-07-25T02:42:52.535Z,0.00
2018-07-25T02:43:52.682Z,0.00
2018-07-25T02:44:52.723Z,0.00
2018-07-25T02:45:52.844Z,0.00
2018-07-25T02:46:52.939Z,0.00
2018-07-25T02:47:53.042Z,0.00
2018-07-25T02:48:53.144Z,0.00
2018-07-25T02:49:53.245Z,0.00
2018-07-25T02:50:53.343Z,4.00
2018-07-25T02:51:53.445Z,4.00
2018-07-25T02:52:53.543Z,4.00
2018-07-25T02:53:53.646Z,4.00
2018-07-25T02:54:53.744Z,4.00
2018-07-25T02:55:53.844Z,4.00
2018-07-25T02:56:53.968Z,4.00
2018-07-25T02:57:54.046Z,0.00
2018-07-25T02:58:54.144Z,4.00
2018-07-25T02:59:54.246Z,4.00
2018-07-25T03:00:54.345Z,4.00
2018-07-25T03:01:54.450Z,4.00
2018-07-25T03:02:54.553Z,4.00
2018-07-25T03:03:54.651Z,8.00
2018-07-25T03:04:54.767Z,4.00
2018-07-25T03:05:54.862Z,8.00
2018-07-25T03:06:54.961Z,8.00
2018-07-25T03:07:55.059Z,8.00
2018-07-25T03:08:55.163Z,8.00
2018-07-25T03:09:55.259Z,12.00
2018-07-25T03:10:55.358Z,12.00
2018-07-25T03:11:55.460Z,16.00
2018-07-25T03:12:55.563Z,16.00
2018-07-25T03:13:55.663Z,20.00
2018-07-25T03:14:55.760Z,20.00
2018-07-25T03:15:55.860Z,20.00
2018-07-25T03:16:55.965Z,28.00
2018-07-25T03:17:56.069Z,32.00
2018-07-25T03:18:56.170Z,32.00
2018-07-25T03:19:56.265Z,32.00
2018-07-25T03:20:56.368Z,40.00
2018-07-25T03:21:56.470Z,44.00
2018-07-25T03:22:56.570Z,48.00
2018-07-25T03:23:56.667Z,52.00
2018-07-25T03:24:56.770Z,60.00
2018-07-25T03:25:56.867Z,68.00
2018-07-25T03:26:56.969Z,72.00
2018-07-25T03:27:57.068Z,84.00
2018-07-25T03:28:57.166Z,92.00
2018-07-25T03:29:57.267Z,100.00
2018-07-25T03:30:57.367Z,112.00
2018-07-25T03:31:57.465Z,116.00
2018-07-25T03:32:57.563Z,128.00
2018-07-25T03:33:57.664Z,136.00
2018-07-25T03:34:57.764Z,152.00
2018-07-25T03:35:57.864Z,164.00
2018-07-25T03:36:57.966Z,176.00
2018-07-25T03:37:58.068Z,192.00
2018-07-25T03:38:58.164Z,204.00
2018-07-25T03:39:58.263Z,220.00
2018-07-25T03:40:58.364Z,236.00
2018-07-25T03:41:58.462Z,248.00
2018-07-25T03:42:58.555Z,268.00
2018-07-25T03:43:58.657Z,288.00
2018-07-25T03:44:58.748Z,308.00
2018-07-25T03:45:58.850Z,328.00
2018-07-25T03:46:58.956Z,348.00
2018-07-25T03:47:59.052Z,368.00
2018-07-25T03:48:59.152Z,396.00
2018-07-25T03:49:59.251Z,420.00
2018-07-25T03:50:59.352Z,440.00
2018-07-25T03:51:59.447Z,468.00
2018-07-25T03:52:59.544Z,492.00
2018-07-25T03:53:59.647Z,516.00
2018-07-25T03:54:59.749Z,548.00
2018-07-25T03:55:59.849Z,572.00
2018-07-25T03:56:59.949Z,600.00
2018-07-25T03:58:00.050Z,628.00
2018-07-25T03:59:00.150Z,660.00
2018-07-25T04:00:00.251Z,688.00
2018-07-25T04:01:00.354Z,720.00
2018-07-25T04:02:00.504Z,748.00
2018-07-25T04:03:00.552Z,776.00
2018-07-25T04:04:00.654Z,808.00
2018-07-25T04:05:00.757Z,844.00
2018-07-25T04:06:00.856Z,872.00
2018-07-25T04:07:00.957Z,904.00
2018-07-25T04:08:01.057Z,936.00
2018-07-25T04:09:01.161Z,964.00
2018-07-25T04:10:01.255Z,1000.00
2018-07-25T04:11:01.356Z,1032.00
2018-07-25T04:12:01.468Z,1064.00
2018-07-25T04:13:01.567Z,1092.00
2018-07-25T04:14:01.669Z,1124.00
2018-07-25T04:15:01.769Z,1156.00
2018-07-25T04:16:01.868Z,1188.00
2018-07-25T04:17:01.967Z,1220.00
2018-07-25T04:18:02.069Z,1256.00
2018-07-25T04:19:02.178Z,1288.00
2018-07-25T04:20:02.282Z,1320.00
2018-07-25T04:21:02.381Z,1356.00
2018-07-25T04:22:02.482Z,1392.00
2018-07-25T04:23:02.584Z,1428.00
2018-07-25T04:24:02.684Z,1460.00
2018-07-25T04:25:02.793Z,1492.00
2018-07-25T04:26:02.890Z,1528.00
2018-07-25T04:27:02.990Z,1556.00
2018-07-25T04:28:03.085Z,1592.00
2018-07-25T04:29:03.202Z,1628.00
2018-07-25T04:30:03.286Z,1664.00
2018-07-25T04:31:03.385Z,1692.00
2018-07-25T04:32:03.488Z,1728.00
2018-07-25T04:33:03.598Z,1756.00
2018-07-25T04:34:03.704Z,1796.00
2018-07-25T04:35:03.800Z,1824.00
2018-07-25T04:36:03.902Z,1856.00
2018-07-25T04:37:04.001Z,1888.00
2018-07-25T04:38:04.101Z,1924.00
2018-07-25T04:39:04.201Z,1956.00
2018-07-25T04:40:04.310Z,1984.00
2018-07-25T04:41:04.412Z,2012.00
2018-07-25T04:42:04.515Z,2048.00
2018-07-25T04:43:04.618Z,2076.00
2018-07-25T04:44:04.715Z,2108.00
2018-07-25T04:45:04.818Z,2148.00
2018-07-25T04:46:04.931Z,2176.00
2018-07-25T04:47:05.025Z,2212.00
2018-07-25T04:48:05.128Z,2244.00
2018-07-25T04:49:05.225Z,2284.00
2018-07-25T04:50:05.323Z,2316.00
2018-07-25T04:51:05.424Z,2348.00
2018-07-25T04:52:05.525Z,2380.00
2018-07-25T04:53:05.636Z,2408.00
2018-07-25T04:54:05.739Z,2436.00
2018-07-25T04:55:05.836Z,2468.00
2018-07-25T04:56:05.978Z,2500.00
2018-07-25T04:57:06.040Z,2536.00
2018-07-25T04:58:06.139Z,2568.00
2018-07-25T04:59:06.238Z,2600.00
2018-07-25T05:00:06.341Z,2628.00
2018-07-25T05:01:06.449Z,2660.00
2018-07-25T05:02:06.549Z,2684.00
2018-07-25T05:03:06.651Z,2720.00
2018-07-25T05:04:06.750Z,2756.00
2018-07-25T05:05:06.854Z,2776.00
2018-07-25T05:06:06.957Z,2796.00
2018-07-25T05:07:07.119Z,2824.00
2018-07-25T05:08:07.158Z,2840.00
2018-07-25T05:09:07.261Z,2864.00
2018-07-25T05:10:07.360Z,2888.00
2018-07-25T05:11:07.462Z,2912.00
2018-07-25T05:12:07.553Z,2932.00
2018-07-25T05:13:07.649Z,2956.00
2018-07-25T05:14:07.756Z,2984.00
2018-07-25T05:15:07.871Z,3000.00
2018-07-25T05:16:07.973Z,3028.00
2018-07-25T05:17:08.069Z,3048.00
2018-07-25T05:18:08.171Z,3072.00
2018-07-25T05:19:08.273Z,3092.00
2018-07-25T05:20:08.376Z,3112.00
2018-07-25T05:21:08.480Z,3140.00
2018-07-25T05:22:08.585Z,3320.00
2018-07-25T05:23:08.715Z,3208.00
2018-07-25T05:24:08.786Z,3236.00
2018-07-25T05:25:08.887Z,3272.00
2018-07-25T05:26:08.988Z,3300.00
2018-07-25T05:27:09.089Z,3396.00
2018-07-25T05:28:09.190Z,3388.00
2018-07-25T05:29:09.296Z,3420.00
2018-07-25T05:30:09.417Z,3456.00
2018-07-25T05:31:09.496Z,3492.00
2018-07-25T05:32:09.598Z,3532.00
2018-07-25T05:33:09.705Z,3572.00
2018-07-25T05:34:09.811Z,3620.00
2018-07-25T05:35:09.908Z,3672.00
2018-07-25T05:36:09.998Z,3716.00
2018-07-25T05:37:10.113Z,3896.00
2018-07-25T05:38:10.291Z,4264.00
2018-07-25T05:39:10.317Z,6092.00
2018-07-25T05:40:10.423Z,13088.00
2018-07-25T05:41:10.526Z,22848.00
2018-07-25T05:42:10.627Z,26304.00
2018-07-25T05:43:10.727Z,27392.00
2018-07-25T05:44:10.830Z,29184.00
2018-07-25T05:45:10.935Z,31808.00
2018-07-25T05:46:11.030Z,30336.00
2018-07-25T05:47:11.133Z,30496.00
2018-07-25T05:48:11.236Z,32576.00
2018-07-25T05:49:11.341Z,33024.00
2018-07-25T05:50:11.444Z,33184.00
2018-07-25T05:51:11.554Z,32480.00
2018-07-25T05:52:11.651Z,31776.00
2018-07-25T05:53:11.755Z,30912.00
2018-07-25T05:54:11.862Z,30656.00
2018-07-25T05:55:11.964Z,30432.00
2018-07-25T05:56:12.069Z,30368.00
2018-07-25T05:57:12.177Z,30144.00
2018-07-25T05:58:12.277Z,29952.00
2018-07-25T05:59:12.373Z,30144.00
2018-07-25T06:00:12.493Z,30816.00
2018-07-25T06:01:13.423Z,31360.00
2018-07-25T06:02:12.680Z,32160.00
2018-07-25T06:03:12.898Z,32224.00
2018-07-25T06:04:12.937Z,31104.00
2018-07-25T06:05:13.048Z,29408.00
2018-07-25T06:06:13.225Z,29056.00
2018-07-25T06:07:13.286Z,29088.00
2018-07-25T06:08:13.429Z,28096.00
2018-07-25T06:09:13.566Z,28416.00
2018-07-25T06:10:13.744Z,27616.00
2018-07-25T06:11:13.837Z,26944.00
2018-07-25T06:12:13.959Z,28256.00
2018-07-25T06:13:14.148Z,30752.00
2018-07-25T06:14:14.197Z,33632.00
2018-07-25T06:15:14.297Z,34752.00
2018-07-25T06:16:14.401Z,33824.00
2018-07-25T06:17:14.528Z,32096.00
2018-07-25T06:18:14.649Z,30816.00
2018-07-25T06:19:14.745Z,31616.00
2018-07-25T06:20:14.862Z,22112.00
2018-07-25T06:21:14.958Z,8572.00
2018-07-25T06:22:15.099Z,5424.00
2018-07-25T06:23:15.249Z,9096.00
2018-07-25T06:24:15.355Z,20320.00
2018-07-25T06:25:15.504Z,22048.00
2018-07-25T06:26:15.608Z,15392.00
2018-07-25T06:27:15.730Z,8736.00
2018-07-25T06:28:15.857Z,5356.00
2018-07-25T06:29:15.990Z,5252.00
2018-07-25T06:30:16.038Z,5212.00
2018-07-25T06:31:16.259Z,5188.00
2018-07-25T06:32:16.260Z,5160.00
2018-07-25T06:33:16.363Z,5144.00
2018-07-25T06:34:16.483Z,5136.00
2018-07-25T06:35:16.593Z,5140.00
2018-07-25T06:36:16.725Z,5176.00
2018-07-25T06:37:16.897Z,5108.00
2018-07-25T06:38:16.913Z,5132.00
2018-07-25T06:39:17.015Z,5124.00
2018-07-25T06:40:17.132Z,5120.00
2018-07-25T06:41:17.245Z,5116.00
2018-07-25T06:42:17.351Z,5116.00
2018-07-25T06:43:17.505Z,5316.00
2018-07-25T06:44:17.631Z,5144.00
2018-07-25T06:45:17.783Z,5116.00
2018-07-25T06:46:17.884Z,5116.00
2018-07-25T06:47:18.078Z,5104.00
2018-07-25T06:48:18.701Z,5304.00
2018-07-25T06:49:18.218Z,5064.00
2018-07-25T06:50:18.369Z,5036.00
2018-07-25T06:51:18.508Z,5172.00
2018-07-25T06:52:18.544Z,5020.00
2018-07-25T06:53:18.644Z,5016.00
2018-07-25T06:54:18.769Z,4992.00
2018-07-25T06:55:18.960Z,5004.00
2018-07-25T06:56:18.946Z,5000.00
2018-07-25T06:57:19.101Z,4984.00
2018-07-25T06:58:19.160Z,5004.00
2018-07-25T06:59:19.278Z,5004.00
2018-07-25T07:00:19.392Z,5008.00
2018-07-25T07:01:19.500Z,5012.00
2018-07-25T07:02:19.664Z,4972.00
2018-07-25T07:03:19.770Z,4992.00
2018-07-25T07:04:19.877Z,4992.00
2018-07-25T07:05:19.990Z,5156.00
2018-07-25T07:06:20.131Z,4972.00
2018-07-25T07:07:20.245Z,4972.00
2018-07-25T07:08:20.351Z,4972.00
2018-07-25T07:09:20.440Z,4880.00
2018-07-25T07:10:20.566Z,4956.00
2018-07-25T07:11:20.734Z,4948.00
2018-07-25T07:12:20.856Z,4944.00
2018-07-25T07:13:20.961Z,4952.00
2018-07-25T07:14:21.055Z,4944.00
2018-07-25T07:15:21.178Z,4948.00
2018-07-25T07:16:21.265Z,4932.00
2018-07-25T07:17:21.399Z,4948.00
2018-07-25T07:18:21.480Z,4956.00
2018-07-25T07:19:21.599Z,5064.00
2018-07-25T07:20:21.707Z,5240.00
2018-07-25T07:21:21.820Z,5172.00
2018-07-25T07:22:21.931Z,5176.00
2018-07-25T07:23:22.034Z,5196.00
2018-07-25T07:24:22.148Z,5304.00
2018-07-25T07:25:22.249Z,5252.00
2018-07-25T07:26:22.381Z,5164.00
2018-07-25T07:27:22.483Z,5064.00
2018-07-25T07:28:22.578Z,5100.00
2018-07-25T07:29:22.708Z,5284.00
2018-07-25T07:30:22.822Z,5088.00
2018-07-25T07:31:22.964Z,5084.00
2018-07-25T07:32:23.013Z,5092.00
2018-07-25T07:33:23.121Z,5068.00
2018-07-25T07:34:23.235Z,5080.00
2018-07-25T07:35:44.208Z,5080.00
2018-07-25T07:36:44.347Z,5088.00
2018-07-25T07:37:44.506Z,5084.00
2018-07-25T07:38:44.639Z,4980.00
2018-07-25T07:39:44.652Z,4948.00
2018-07-25T07:40:44.763Z,4944.00
2018-07-25T07:41:44.936Z,4956.00
2018-07-25T07:42:44.916Z,4956.00
2018-07-25T07:43:45.036Z,4964.00
2018-07-25T07:44:45.143Z,4976.00
2018-07-25T07:45:45.253Z,4960.00
2018-07-25T07:46:45.350Z,4988.00
2018-07-25T07:47:45.536Z,4964.00
2018-07-25T07:48:45.562Z,4968.00
2018-07-25T07:49:45.655Z,4968.00
2018-07-25T07:50:45.766Z,4980.00
2018-07-25T07:51:45.853Z,4984.00
2018-07-25T07:52:45.971Z,4992.00
2018-07-25T07:53:46.102Z,4996.00
2018-07-25T07:54:46.205Z,5008.00
2018-07-25T07:55:46.314Z,5028.00
2018-07-25T07:56:46.431Z,5028.00
2018-07-25T07:57:46.543Z,5024.00
2018-07-25T07:58:46.637Z,5024.00
2018-07-25T07:59:46.749Z,5036.00
2018-07-25T08:00:46.873Z,5044.00
2018-07-25T08:01:47.000Z,5024.00
2018-07-25T08:02:47.120Z,5060.00
2018-07-25T08:03:47.241Z,5068.00
2018-07-25T08:04:47.425Z,5204.00
2018-07-25T08:05:47.434Z,5072.00
2018-07-25T08:06:47.540Z,4992.00
2018-07-25T08:07:47.654Z,5084.00
2018-07-25T08:08:47.801Z,5096.00
2018-07-25T08:09:47.912Z,5104.00
2018-07-25T08:10:48.047Z,5112.00
2018-07-25T08:11:48.130Z,5080.00
2018-07-25T08:12:48.280Z,5120.00
2018-07-25T08:13:48.408Z,5116.00
2018-07-25T08:14:48.494Z,5136.00
2018-07-25T08:15:48.628Z,5144.00
2018-07-25T08:16:48.828Z,5148.00
2018-07-25T08:17:48.833Z,5156.00
2018-07-25T08:18:48.932Z,5152.00
2018-07-25T08:19:49.113Z,5152.00
2018-07-25T08:20:49.221Z,5160.00
2018-07-25T08:21:49.274Z,5168.00
2018-07-25T08:22:49.378Z,5168.00
2018-07-25T08:23:49.484Z,5164.00
2018-07-25T08:24:49.588Z,5176.00
2018-07-25T08:25:50.439Z,5172.00
2018-07-25T08:26:49.791Z,5180.00
2018-07-25T08:27:49.899Z,5172.00
2018-07-25T08:28:50.007Z,5160.00
2018-07-25T08:29:50.107Z,5144.00
2018-07-25T08:30:50.227Z,5172.00
2018-07-25T08:31:50.339Z,5168.00
2018-07-25T08:32:50.449Z,5160.00
2018-07-25T08:33:50.548Z,5160.00
2018-07-25T08:34:50.714Z,5148.00
2018-07-25T08:35:50.764Z,5200.00
2018-07-25T08:36:50.867Z,5148.00
2018-07-25T08:37:50.979Z,5140.00
2018-07-25T08:38:51.091Z,5148.00
2018-07-25T08:39:51.197Z,5132.00
2018-07-25T08:40:51.323Z,5132.00
2018-07-25T08:41:51.431Z,5136.00
2018-07-25T08:42:51.552Z,5136.00
2018-07-25T08:43:51.659Z,5140.00
2018-07-25T08:44:51.759Z,5140.00
2018-07-25T08:45:51.871Z,5136.00
2018-07-25T08:46:51.989Z,5568.00
2018-07-25T08:47:52.095Z,5140.00
2018-07-25T08:48:52.209Z,5152.00
2018-07-25T08:49:52.318Z,5152.00
2018-07-25T08:50:52.436Z,5144.00
2018-07-25T08:51:52.534Z,5148.00
2018-07-25T08:52:52.666Z,5108.00
2018-07-25T08:53:52.760Z,5148.00
2018-07-25T08:54:52.866Z,5152.00
2018-07-25T08:55:52.970Z,5140.00
2018-07-25T08:56:53.079Z,5136.00
2018-07-25T08:57:53.238Z,5152.00
2018-07-25T08:58:53.314Z,5124.00
2018-07-25T08:59:53.432Z,5156.00
2018-07-25T09:00:53.534Z,5168.00
2018-07-25T09:01:53.762Z,5164.00
2018-07-25T09:02:53.754Z,5156.00
2018-07-25T09:03:53.865Z,5156.00
2018-07-25T09:04:53.975Z,5156.00
2018-07-25T09:05:54.097Z,5164.00
2018-07-25T09:06:54.194Z,5156.00
2018-07-25T09:07:54.297Z,5156.00
2018-07-25T09:08:54.403Z,5164.00
2018-07-25T09:09:54.537Z,5168.00
2018-07-25T09:10:54.639Z,5172.00
2018-07-25T09:11:54.753Z,5160.00
2018-07-25T09:12:54.894Z,5496.00
2018-07-25T09:13:54.960Z,5140.00
2018-07-25T09:14:55.058Z,5196.00
2018-07-25T09:15:55.180Z,5164.00
2018-07-25T09:16:55.311Z,5172.00
2018-07-25T09:17:55.387Z,5268.00
2018-07-25T09:18:55.548Z,5132.00
2018-07-25T09:19:55.755Z,5092.00
2018-07-25T09:20:55.727Z,5172.00
2018-07-25T09:21:55.831Z,5180.00
2018-07-25T09:22:55.928Z,5180.00
2018-07-25T09:23:56.044Z,5088.00
2018-07-25T09:24:56.148Z,5180.00
2018-07-25T09:25:56.254Z,5176.00
2018-07-25T09:26:56.357Z,5192.00
2018-07-25T09:27:56.466Z,5192.00
2018-07-25T09:28:56.580Z,5144.00
2018-07-25T09:29:56.680Z,5184.00
2018-07-25T09:30:56.787Z,5188.00
2018-07-25T09:31:56.893Z,5168.00
2018-07-25T09:32:56.998Z,5184.00
2018-07-25T09:33:57.138Z,5200.00
2018-07-25T09:34:57.231Z,5220.00
2018-07-25T09:35:57.337Z,5208.00
2018-07-25T09:36:57.441Z,5216.00
2018-07-25T09:37:57.548Z,5224.00
2018-07-25T09:38:57.657Z,5208.00
2018-07-25T09:39:57.767Z,5204.00
2018-07-25T09:40:57.876Z,5220.00
2018-07-25T09:41:57.970Z,5244.00
2018-07-25T09:42:58.082Z,5264.00
2018-07-25T09:43:58.208Z,5344.00
2018-07-25T09:44:58.316Z,5372.00
2018-07-25T09:45:58.427Z,5388.00
2018-07-25T09:46:58.641Z,5412.00
2018-07-25T09:47:58.642Z,5460.00
2018-07-25T09:48:58.759Z,5420.00
2018-07-25T09:49:58.849Z,5388.00
2018-07-25T09:50:58.965Z,5416.00
2018-07-25T09:51:59.075Z,5376.00
2018-07-25T09:52:59.222Z,5424.00
2018-07-25T09:53:59.291Z,5500.00
2018-07-25T09:54:59.400Z,5500.00
2018-07-25T09:55:59.534Z,5600.00
2018-07-25T09:56:59.624Z,5584.00
2018-07-25T09:57:59.740Z,5568.00
2018-07-25T09:58:59.860Z,5548.00
2018-07-25T09:59:59.972Z,5672.00
2018-07-25T10:01:00.114Z,5596.00
2018-07-25T10:02:00.166Z,5644.00
2018-07-25T10:03:00.271Z,5668.00
2018-07-25T10:04:00.384Z,5680.00
2018-07-25T10:05:00.494Z,5744.00
2018-07-25T10:06:00.604Z,5780.00
2018-07-25T10:07:00.715Z,5880.00
2018-07-25T10:08:00.821Z,5912.00
2018-07-25T10:09:00.929Z,6144.00
2018-07-25T10:10:01.046Z,6408.00
2018-07-25T10:11:01.150Z,6184.00
2018-07-25T10:12:01.266Z,5488.00
2018-07-25T10:13:01.367Z,6424.00
2018-07-25T10:14:01.475Z,6572.00
2018-07-25T10:15:01.614Z,6796.00
2018-07-25T10:16:01.699Z,6884.00
2018-07-25T10:17:01.802Z,7052.00
2018-07-25T10:18:01.912Z,7204.00
2018-07-25T10:19:02.019Z,7232.00
2018-07-25T10:20:02.129Z,7328.00
2018-07-25T10:21:02.235Z,7504.00
2018-07-25T10:22:02.343Z,7616.00
2018-07-25T10:23:02.453Z,7508.00
2018-07-25T10:24:02.580Z,7544.00
2018-07-25T10:25:02.668Z,7544.00
2018-07-25T10:26:02.777Z,7552.00
2018-07-25T10:27:02.905Z,7628.00
2018-07-25T10:28:02.997Z,7856.00
2018-07-25T10:29:03.105Z,7296.00
2018-07-25T10:30:03.217Z,7664.00
2018-07-25T10:31:03.325Z,7552.00
2018-07-25T10:32:03.433Z,7508.00
2018-07-25T10:33:03.619Z,7500.00
2018-07-25T10:34:03.650Z,7516.00
2018-07-25T10:35:03.763Z,7548.00
2018-07-25T10:36:03.869Z,7460.00
2018-07-25T10:37:04.004Z,7336.00
2018-07-25T10:38:04.106Z,7212.00
2018-07-25T10:39:04.258Z,7652.00
2018-07-25T10:40:04.311Z,7444.00
2018-07-25T10:41:04.419Z,7460.00
2018-07-25T10:42:04.551Z,7372.00
2018-07-25T10:43:04.656Z,7508.00
2018-07-25T10:44:04.769Z,7660.00
2018-07-25T10:45:04.874Z,7756.00
2018-07-25T10:46:04.984Z,7792.00
2018-07-25T10:47:05.092Z,7576.00
2018-07-25T10:48:05.203Z,8184.00
2018-07-25T10:49:05.313Z,7620.00
2018-07-25T10:50:05.423Z,7664.00
2018-07-25T10:51:05.526Z,7720.00
2018-07-25T10:52:05.638Z,7864.00
2018-07-25T10:53:05.747Z,7744.00
2018-07-25T10:54:05.843Z,7684.00
2018-07-25T10:55:05.966Z,7660.00
2018-07-25T10:56:06.080Z,7556.00
2018-07-25T10:57:06.188Z,7520.00
2018-07-25T10:58:06.298Z,7436.00
2018-07-25T10:59:06.407Z,7420.00
2018-07-25T11:00:06.517Z,7424.00
2018-07-25T11:01:06.630Z,7592.00
2018-07-25T11:02:06.780Z,7620.00
2018-07-25T11:03:06.844Z,7656.00
2018-07-25T11:04:06.953Z,7924.00
2018-07-25T11:05:07.063Z,7568.00
2018-07-25T11:06:07.171Z,7424.00
2018-07-25T11:07:07.285Z,7336.00
2018-07-25T11:08:07.388Z,7316.00
2018-07-25T11:09:07.499Z,7836.00
2018-07-25T11:10:07.609Z,7304.00
2018-07-25T11:11:07.719Z,7132.00
2018-07-25T11:12:07.825Z,6864.00
2018-07-25T11:13:07.940Z,7124.00
2018-07-25T11:14:08.040Z,7176.00
2018-07-25T11:15:08.155Z,7192.00
2018-07-25T11:16:08.261Z,7128.00
2018-07-25T11:17:08.374Z,7048.00
2018-07-25T11:18:08.479Z,7004.00
2018-07-25T11:19:08.590Z,7004.00
2018-07-25T11:20:08.698Z,6820.00
2018-07-25T11:21:08.805Z,6740.00
2018-07-25T11:22:08.918Z,6708.00
2018-07-25T11:23:09.120Z,7168.00
2018-07-25T11:24:09.190Z,6808.00
2018-07-25T11:25:09.304Z,6812.00
2018-07-25T11:26:09.415Z,6844.00
2018-07-25T11:27:09.526Z,6900.00
2018-07-25T11:28:09.644Z,7080.00
2018-07-25T11:29:09.754Z,6928.00
2018-07-25T11:30:09.866Z,7032.00
2018-07-25T11:31:09.980Z,7276.00
2018-07-25T11:32:10.086Z,7312.00
2018-07-25T11:33:10.197Z,6812.00
2018-07-25T11:34:10.313Z,5768.00
2018-07-25T11:35:10.417Z,4744.00
2018-07-25T11:36:10.528Z,4868.00
2018-07-25T11:37:10.639Z,5596.00
2018-07-25T11:38:10.808Z,7012.00
2018-07-25T11:39:10.863Z,6664.00
2018-07-25T11:40:10.973Z,4452.00
2018-07-25T11:41:11.084Z,6044.00
2018-07-25T11:42:11.193Z,6360.00
2018-07-25T11:43:11.306Z,6112.00
2018-07-25T11:44:11.416Z,4232.00
2018-07-25T11:45:11.524Z,3816.00
2018-07-25T11:46:11.634Z,3804.00
2018-07-25T11:47:11.744Z,3920.00
2018-07-25T11:48:11.854Z,4224.00
2018-07-25T11:49:11.962Z,5072.00
2018-07-25T11:50:12.104Z,6688.00
2018-07-25T11:51:12.189Z,5964.00
2018-07-25T11:52:12.300Z,5432.00
2018-07-25T11:53:12.408Z,4896.00
2018-07-25T11:54:12.526Z,4836.00
2018-07-25T11:55:12.636Z,5032.00
2018-07-25T11:56:12.752Z,6960.00
2018-07-25T11:57:12.854Z,7036.00
2018-07-25T11:58:12.963Z,5972.00
2018-07-25T11:59:13.067Z,6712.00
2018-07-25T12:00:13.179Z,7344.00
2018-07-25T12:01:13.436Z,7020.00
2018-07-25T12:02:13.406Z,6236.00
2018-07-25T12:03:13.524Z,6244.00
2018-07-25T12:04:13.624Z,5828.00
2018-07-25T12:05:13.739Z,5196.00
2018-07-25T12:06:13.841Z,5732.00
2018-07-25T12:07:13.945Z,6336.00
2018-07-25T12:08:14.058Z,7056.00
2018-07-25T12:09:14.166Z,6840.00
2018-07-25T12:10:14.275Z,6828.00
2018-07-25T12:11:14.379Z,6856.00
2018-07-25T12:12:14.483Z,6880.00
2018-07-25T12:13:14.605Z,6756.00
2018-07-25T12:14:14.725Z,6080.00
2018-07-25T12:15:14.835Z,6464.00
2018-07-25T12:16:14.943Z,6868.00
2018-07-25T12:17:15.055Z,6816.00
2018-07-25T12:18:15.157Z,6716.00
2018-07-25T12:19:15.255Z,6824.00
2018-07-25T12:20:15.364Z,7540.00
2018-07-25T12:21:15.490Z,6976.00
2018-07-25T12:22:15.598Z,6860.00
2018-07-25T12:23:15.680Z,6816.00
2018-07-25T12:24:15.774Z,6872.00
2018-07-25T12:25:15.897Z,6956.00
2018-07-25T12:28:07.664Z,6624.00